sensor_id;sensor_type;location;lat;lon;timestamp;pressure;altitude;pressure_sealevel;temperature;humidity
71306;BME280;59097;46.858;18.632;2023-04-16T00:01:46;100046.12;;;6.54;100.00
71306;BME280;59097;46.858;18.632;2023-04-16T00:04:19;100040.31;;;6.89;100.00
71306;BME280;59097;46.858;18.632;2023-04-16T00:06:47;100040.31;;;6.89;100.00
71306;BME280;59097;46.858;18.632;2023-04-16T00:09:15;100028.16;;;6.18;100.00
71306;BME280;59097;46.858;18.632;2023-04-16T00:11:43;100050.00;;;6.35;100.00
71306;BME280;59097;46.858;18.632;2023-04-16T00:14:12;100052.59;;;6.43;100.00
71306;BME280;59097;46.858;18.632;2023-04-16T00:16:39;100037.78;;;6.34;100.00
71306;BME280;59097;46.858;18.632;2023-04-16T00:19:07;100047.63;;;6.48;100.00
71306;BME280;59097;46.858;18.632;2023-04-16T00:21:36;100039.12;;;6.38;100.00
71306;BME280;59097;46.858;18.632;2023-04-16T00:24:05;100044.50;;;6.45;100.00
71306;BME280;59097;46.858;18.632;2023-04-16T00:27:02;100039.66;;;6.25;100.00
71306;BME280;59097;46.858;18.632;2023-04-16T00:29:43;100020.78;;;6.06;100.00
71306;BME280;59097;46.858;18.632;2023-04-16T00:32:09;100052.50;;;6.20;100.00
71306;BME280;59097;46.858;18.632;2023-04-16T00:34:36;100043.16;;;6.18;100.00
71306;BME280;59097;46.858;18.632;2023-04-16T00:37:02;100058.22;;;6.32;100.00
71306;BME280;59097;46.858;18.632;2023-04-16T00:39:28;100040.34;;;6.19;100.00
71306;BME280;59097;46.858;18.632;2023-04-16T00:42:00;100069.91;;;6.99;100.00
71306;BME280;59097;46.858;18.632;2023-04-16T00:44:54;100069.91;;;6.99;100.00
71306;BME280;59097;46.858;18.632;2023-04-16T00:47:42;100050.31;;;6.32;100.00
71306;BME280;59097;46.858;18.632;2023-04-16T00:50:53;100069.31;;;6.58;100.00
71306;BME280;59097;46.858;18.632;2023-04-16T00:54:03;100007.06;;;6.26;100.00
71306;BME280;59097;46.858;18.632;2023-04-16T00:56:57;100068.47;;;6.66;100.00
71306;BME280;59097;46.858;18.632;2023-04-16T01:00:10;99967.34;;;6.05;100.00
71306;BME280;59097;46.858;18.632;2023-04-16T01:03:00;100043.00;;;6.50;100.00
71306;BME280;59097;46.858;18.632;2023-04-16T01:06:09;100065.28;;;6.70;100.00
71306;BME280;59097;46.858;18.632;2023-04-16T01:09:18;100015.09;;;6.33;100.00
71306;BME280;59097;46.858;18.632;2023-04-16T01:12:29;100056.09;;;6.66;100.00
71306;BME280;59097;46.858;18.632;2023-04-16T01:15:38;100068.19;;;6.83;100.00
71306;BME280;59097;46.858;18.632;2023-04-16T01:18:29;100063.44;;;6.79;100.00
71306;BME280;59097;46.858;18.632;2023-04-16T01:21:20;100061.97;;;6.76;100.00
71306;BME280;59097;46.858;18.632;2023-04-16T01:23:49;100068.50;;;6.58;100.00
71306;BME280;59097;46.858;18.632;2023-04-16T01:26:44;100067.53;;;6.51;100.00
71306;BME280;59097;46.858;18.632;2023-04-16T01:29:52;100046.84;;;6.40;100.00
71306;BME280;59097;46.858;18.632;2023-04-16T01:32:51;100071.50;;;6.47;100.00
71306;BME280;59097;46.858;18.632;2023-04-16T01:35:17;100049.34;;;6.33;100.00
71306;BME280;59097;46.858;18.632;2023-04-16T01:38:15;100051.47;;;6.38;100.00
71306;BME280;59097;46.858;18.632;2023-04-16T01:41:11;100017.38;;;5.97;100.00
71306;BME280;59097;46.858;18.632;2023-04-16T01:44:17;100090.22;;;6.52;100.00
71306;BME280;59097;46.858;18.632;2023-04-16T01:47:42;100098.50;;;6.49;100.00
71306;BME280;59097;46.858;18.632;2023-04-16T01:51:10;100070.94;;;6.28;100.00
71306;BME280;59097;46.858;18.632;2023-04-16T01:54:13;100079.94;;;6.34;100.00
71306;BME280;59097;46.858;18.632;2023-04-16T01:57:19;100118.06;;;6.54;100.00
71306;BME280;59097;46.858;18.632;2023-04-16T01:59:45;100130.56;;;6.52;100.00
71306;BME280;59097;46.858;18.632;2023-04-16T02:02:13;100111.41;;;6.27;100.00
71306;BME280;59097;46.858;18.632;2023-04-16T02:04:43;100081.81;;;6.09;100.00
71306;BME280;59097;46.858;18.632;2023-04-16T02:07:10;100115.31;;;6.31;100.00
71306;BME280;59097;46.858;18.632;2023-04-16T02:09:39;100141.13;;;6.44;100.00
71306;BME280;59097;46.858;18.632;2023-04-16T02:12:06;100110.03;;;6.40;100.00
71306;BME280;59097;46.858;18.632;2023-04-16T02:14:33;100139.81;;;6.56;100.00
71306;BME280;59097;46.858;18.632;2023-04-16T02:16:59;100141.63;;;6.56;100.00
71306;BME280;59097;46.858;18.632;2023-04-16T02:19:41;100068.47;;;6.19;100.00
71306;BME280;59097;46.858;18.632;2023-04-16T02:22:22;100065.84;;;6.19;100.00
71306;BME280;59097;46.858;18.632;2023-04-16T02:24:49;100111.50;;;6.42;100.00
71306;BME280;59097;46.858;18.632;2023-04-16T02:27:16;100132.56;;;6.50;100.00
71306;BME280;59097;46.858;18.632;2023-04-16T02:29:42;100067.81;;;6.17;100.00
71306;BME280;59097;46.858;18.632;2023-04-16T02:32:09;100124.63;;;6.58;100.00
71306;BME280;59097;46.858;18.632;2023-04-16T02:34:35;100115.09;;;6.49;100.00
71306;BME280;59097;46.858;18.632;2023-04-16T02:37:05;100055.31;;;6.19;100.00
71306;BME280;59097;46.858;18.632;2023-04-16T02:39:31;100127.12;;;6.52;100.00
71306;BME280;59097;46.858;18.632;2023-04-16T02:41:57;100068.34;;;6.12;100.00
71306;BME280;59097;46.858;18.632;2023-04-16T02:44:25;100125.66;;;6.49;100.00
71306;BME280;59097;46.858;18.632;2023-04-16T02:46:52;100125.81;;;6.48;100.00
71306;BME280;59097;46.858;18.632;2023-04-16T02:49:22;100120.75;;;6.46;100.00
71306;BME280;59097;46.858;18.632;2023-04-16T02:51:56;100120.06;;;6.44;100.00
71306;BME280;59097;46.858;18.632;2023-04-16T02:54:23;100114.00;;;6.44;100.00
71306;BME280;59097;46.858;18.632;2023-04-16T02:56:52;100106.09;;;6.44;100.00
71306;BME280;59097;46.858;18.632;2023-04-16T02:59:33;100040.37;;;6.03;100.00
71306;BME280;59097;46.858;18.632;2023-04-16T03:02:07;100116.31;;;6.39;100.00
71306;BME280;59097;46.858;18.632;2023-04-16T03:04:42;100121.09;;;6.35;100.00
71306;BME280;59097;46.858;18.632;2023-04-16T03:07:10;100123.22;;;6.31;100.00
71306;BME280;59097;46.858;18.632;2023-04-16T03:09:41;100124.25;;;6.30;100.00
71306;BME280;59097;46.858;18.632;2023-04-16T03:12:14;100123.53;;;6.37;100.00
71306;BME280;59097;46.858;18.632;2023-04-16T03:14:40;100120.56;;;6.40;100.00
71306;BME280;59097;46.858;18.632;2023-04-16T03:17:13;100128.78;;;6.45;100.00
71306;BME280;59097;46.858;18.632;2023-04-16T03:19:40;100133.72;;;6.48;100.00
71306;BME280;59097;46.858;18.632;2023-04-16T03:22:13;100130.75;;;6.51;100.00
71306;BME280;59097;46.858;18.632;2023-04-16T03:24:45;100136.53;;;7.16;100.00
71306;BME280;59097;46.858;18.632;2023-04-16T03:27:14;100136.53;;;7.16;100.00
71306;BME280;59097;46.858;18.632;2023-04-16T03:29:42;100132.06;;;6.55;100.00
71306;BME280;59097;46.858;18.632;2023-04-16T03:32:10;100128.94;;;6.51;100.00
71306;BME280;59097;46.858;18.632;2023-04-16T03:34:39;100126.81;;;6.47;100.00
71306;BME280;59097;46.858;18.632;2023-04-16T03:37:07;100131.94;;;6.40;100.00
71306;BME280;59097;46.858;18.632;2023-04-16T03:39:39;100136.06;;;6.34;100.00
71306;BME280;59097;46.858;18.632;2023-04-16T03:42:08;100137.41;;;6.30;100.00
71306;BME280;59097;46.858;18.632;2023-04-16T03:44:53;100142.03;;;6.28;100.00
71306;BME280;59097;46.858;18.632;2023-04-16T03:47:50;100141.84;;;6.22;100.00
71306;BME280;59097;46.858;18.632;2023-04-16T03:50:18;100133.66;;;6.09;100.00
71306;BME280;59097;46.858;18.632;2023-04-16T03:52:44;100148.28;;;6.11;100.00
71306;BME280;59097;46.858;18.632;2023-04-16T03:55:12;100151.94;;;6.10;100.00
71306;BME280;59097;46.858;18.632;2023-04-16T03:57:38;100145.19;;;6.00;100.00
71306;BME280;59097;46.858;18.632;2023-04-16T04:00:12;100153.38;;;6.76;100.00
71306;BME280;59097;46.858;18.632;2023-04-16T04:02:40;100153.38;;;6.76;100.00
71306;BME280;59097;46.858;18.632;2023-04-16T04:05:12;100155.19;;;6.20;100.00
71306;BME280;59097;46.858;18.632;2023-04-16T04:07:40;100158.16;;;6.25;100.00
71306;BME280;59097;46.858;18.632;2023-04-16T04:10:08;100160.47;;;6.28;100.00
71306;BME280;59097;46.858;18.632;2023-04-16T04:12:37;100159.13;;;6.32;100.00
71306;BME280;59097;46.858;18.632;2023-04-16T04:15:06;100172.59;;;6.38;100.00
71306;BME280;59097;46.858;18.632;2023-04-16T04:17:34;100167.00;;;6.41;100.00
71306;BME280;59097;46.858;18.632;2023-04-16T04:20:04;100148.91;;;6.38;100.00
71306;BME280;59097;46.858;18.632;2023-04-16T04:23:01;100161.88;;;6.47;100.00
71306;BME280;59097;46.858;18.632;2023-04-16T04:25:43;100161.53;;;6.50;100.00
71306;BME280;59097;46.858;18.632;2023-04-16T04:28:09;100166.94;;;6.57;100.00
71306;BME280;59097;46.858;18.632;2023-04-16T04:30:35;100157.31;;;6.41;100.00
71306;BME280;59097;46.858;18.632;2023-04-16T04:33:01;100176.31;;;6.59;100.00
71306;BME280;59097;46.858;18.632;2023-04-16T04:35:28;100154.97;;;6.46;100.00
71306;BME280;59097;46.858;18.632;2023-04-16T04:38:01;100175.22;;;7.23;100.00
71306;BME280;59097;46.858;18.632;2023-04-16T04:40:30;100175.22;;;7.23;100.00
71306;BME280;59097;46.858;18.632;2023-04-16T04:42:58;100167.84;;;6.41;100.00
71306;BME280;59097;46.858;18.632;2023-04-16T04:45:26;100151.34;;;6.47;100.00
71306;BME280;59097;46.858;18.632;2023-04-16T04:47:59;100152.47;;;6.53;100.00
71306;BME280;59097;46.858;18.632;2023-04-16T04:50:27;100151.34;;;6.47;100.00
71306;BME280;59097;46.858;18.632;2023-04-16T04:52:55;100131.44;;;6.45;100.00
71306;BME280;59097;46.858;18.632;2023-04-16T04:55:23;100161.66;;;6.65;100.00
71306;BME280;59097;46.858;18.632;2023-04-16T04:58:06;100163.03;;;6.53;100.00
71306;BME280;59097;46.858;18.632;2023-04-16T05:00:47;100165.34;;;6.48;100.00
71306;BME280;59097;46.858;18.632;2023-04-16T05:03:18;100167.44;;;6.60;100.00
71306;BME280;59097;46.858;18.632;2023-04-16T05:05:45;100174.38;;;6.61;100.00
71306;BME280;59097;46.858;18.632;2023-04-16T05:08:11;100176.00;;;6.62;100.00
71306;BME280;59097;46.858;18.632;2023-04-16T05:10:37;100162.34;;;6.59;100.00
71306;BME280;59097;46.858;18.632;2023-04-16T05:13:10;100185.56;;;7.64;100.00
71306;BME280;59097;46.858;18.632;2023-04-16T05:15:38;100185.56;;;7.64;100.00
71306;BME280;59097;46.858;18.632;2023-04-16T05:18:07;100173.34;;;7.09;100.00
71306;BME280;59097;46.858;18.632;2023-04-16T05:20:35;100180.38;;;7.17;100.00
71306;BME280;59097;46.858;18.632;2023-04-16T05:23:04;100152.59;;;7.06;100.00
71306;BME280;59097;46.858;18.632;2023-04-16T05:25:32;100183.16;;;7.23;100.00
71306;BME280;59097;46.858;18.632;2023-04-16T05:28:00;100187.56;;;7.31;100.00
71306;BME280;59097;46.858;18.632;2023-04-16T05:30:28;100190.72;;;7.26;100.00
71306;BME280;59097;46.858;18.632;2023-04-16T05:32:57;100189.50;;;7.37;100.00
71306;BME280;59097;46.858;18.632;2023-04-16T05:35:54;100181.75;;;7.43;100.00
71306;BME280;59097;46.858;18.632;2023-04-16T05:38:20;100171.47;;;7.48;100.00
71306;BME280;59097;46.858;18.632;2023-04-16T05:40:46;100174.03;;;7.56;100.00
71306;BME280;59097;46.858;18.632;2023-04-16T05:43:12;100175.09;;;7.70;100.00
71306;BME280;59097;46.858;18.632;2023-04-16T05:45:39;100170.25;;;7.82;100.00
71306;BME280;59097;46.858;18.632;2023-04-16T05:48:12;100186.53;;;8.74;100.00
71306;BME280;59097;46.858;18.632;2023-04-16T05:50:41;100186.53;;;8.74;100.00
71306;BME280;59097;46.858;18.632;2023-04-16T05:53:09;100177.97;;;8.20;100.00
71306;BME280;59097;46.858;18.632;2023-04-16T05:55:37;100170.25;;;8.19;100.00
71306;BME280;59097;46.858;18.632;2023-04-16T05:58:05;100188.63;;;8.35;100.00
71306;BME280;59097;46.858;18.632;2023-04-16T06:00:33;100177.22;;;8.35;100.00
71306;BME280;59097;46.858;18.632;2023-04-16T06:03:02;100192.09;;;8.65;100.00
71306;BME280;59097;46.858;18.632;2023-04-16T06:05:30;100156.16;;;8.41;100.00
71306;BME280;59097;46.858;18.632;2023-04-16T06:08:07;100192.25;;;8.49;100.00
71306;BME280;59097;46.858;18.632;2023-04-16T06:11:04;100220.25;;;8.58;100.00
71306;BME280;59097;46.858;18.632;2023-04-16T06:13:45;100226.81;;;8.62;100.00
71306;BME280;59097;46.858;18.632;2023-04-16T06:16:12;100235.50;;;8.56;100.00
71306;BME280;59097;46.858;18.632;2023-04-16T06:18:38;100225.97;;;8.47;100.00
71306;BME280;59097;46.858;18.632;2023-04-16T06:21:04;100225.91;;;8.40;100.00
71306;BME280;59097;46.858;18.632;2023-04-16T06:23:30;100233.84;;;8.55;100.00
71306;BME280;59097;46.858;18.632;2023-04-16T06:25:57;100228.75;;;8.53;100.00
71306;BME280;59097;46.858;18.632;2023-04-16T06:28:29;100237.31;;;9.14;100.00
71306;BME280;59097;46.858;18.632;2023-04-16T06:30:58;100237.31;;;9.14;100.00
71306;BME280;59097;46.858;18.632;2023-04-16T06:33:27;100233.09;;;8.46;100.00
71306;BME280;59097;46.858;18.632;2023-04-16T06:35:55;100230.22;;;8.33;100.00
71306;BME280;59097;46.858;18.632;2023-04-16T06:38:23;100236.00;;;8.51;100.00
71306;BME280;59097;46.858;18.632;2023-04-16T06:40:51;100232.94;;;8.62;100.00
71306;BME280;59097;46.858;18.632;2023-04-16T06:43:19;100241.97;;;8.68;100.00
71306;BME280;59097;46.858;18.632;2023-04-16T06:45:47;100212.34;;;8.58;100.00
71306;BME280;59097;46.858;18.632;2023-04-16T06:48:15;100239.97;;;8.84;100.00
71306;BME280;59097;46.858;18.632;2023-04-16T06:50:43;100212.16;;;8.59;100.00
71306;BME280;59097;46.858;18.632;2023-04-16T06:53:25;100230.41;;;8.83;100.00
71306;BME280;59097;46.858;18.632;2023-04-16T06:55:51;100223.09;;;9.00;100.00
71306;BME280;59097;46.858;18.632;2023-04-16T06:58:18;100225.56;;;9.02;100.00
71306;BME280;59097;46.858;18.632;2023-04-16T07:00:44;100223.66;;;8.96;100.00
71306;BME280;59097;46.858;18.632;2023-04-16T07:03:10;100221.19;;;8.94;100.00
71306;BME280;59097;46.858;18.632;2023-04-16T07:05:37;100205.88;;;8.75;100.00
71306;BME280;59097;46.858;18.632;2023-04-16T07:08:13;100211.81;;;9.42;100.00
71306;BME280;59097;46.858;18.632;2023-04-16T07:11:44;100211.81;;;9.42;100.00
71306;BME280;59097;46.858;18.632;2023-04-16T07:14:54;100214.78;;;9.18;100.00
71306;BME280;59097;46.858;18.632;2023-04-16T07:18:13;100152.28;;;9.17;100.00
71306;BME280;59097;46.858;18.632;2023-04-16T07:20:41;100209.13;;;9.57;100.00
71306;BME280;59097;46.858;18.632;2023-04-16T07:23:09;100213.69;;;9.48;100.00
71306;BME280;59097;46.858;18.632;2023-04-16T07:25:37;100190.13;;;9.53;100.00
71306;BME280;59097;46.858;18.632;2023-04-16T07:28:05;100182.91;;;9.62;100.00
71306;BME280;59097;46.858;18.632;2023-04-16T07:30:34;100221.06;;;9.88;100.00
71306;BME280;59097;46.858;18.632;2023-04-16T07:33:03;100229.56;;;9.84;100.00
71306;BME280;59097;46.858;18.632;2023-04-16T07:35:31;100229.81;;;9.89;100.00
71306;BME280;59097;46.858;18.632;2023-04-16T07:38:00;100227.34;;;9.66;100.00
71306;BME280;59097;46.858;18.632;2023-04-16T07:40:34;100234.53;;;9.72;100.00
71306;BME280;59097;46.858;18.632;2023-04-16T07:43:31;100243.78;;;9.62;100.00
71306;BME280;59097;46.858;18.632;2023-04-16T07:46:13;100225.75;;;9.50;100.00
71306;BME280;59097;46.858;18.632;2023-04-16T07:48:39;100264.03;;;9.69;100.00
71306;BME280;59097;46.858;18.632;2023-04-16T07:51:05;100268.59;;;9.39;100.00
71306;BME280;59097;46.858;18.632;2023-04-16T07:53:32;100277.16;;;9.41;100.00
71306;BME280;59097;46.858;18.632;2023-04-16T07:55:58;100275.53;;;9.26;100.00
71306;BME280;59097;46.858;18.632;2023-04-16T07:58:30;100273.34;;;9.29;100.00
71306;BME280;59097;46.858;18.632;2023-04-16T08:00:59;100249.72;;;9.13;100.00
71306;BME280;59097;46.858;18.632;2023-04-16T08:03:28;100268.31;;;9.34;100.00
71306;BME280;59097;46.858;18.632;2023-04-16T08:05:56;100277.63;;;9.30;100.00
71306;BME280;59097;46.858;18.632;2023-04-16T08:08:25;100267.78;;;9.24;100.00
71306;BME280;59097;46.858;18.632;2023-04-16T08:10:54;100273.91;;;9.25;100.00
71306;BME280;59097;46.858;18.632;2023-04-16T08:13:23;100278.19;;;9.26;100.00
71306;BME280;59097;46.858;18.632;2023-04-16T08:15:51;100264.91;;;9.40;100.00
71306;BME280;59097;46.858;18.632;2023-04-16T08:18:41;100268.59;;;10.32;100.00
71306;BME280;59097;46.858;18.632;2023-04-16T08:21:10;100268.59;;;10.32;100.00
71306;BME280;59097;46.858;18.632;2023-04-16T08:23:37;100265.06;;;9.89;100.00
71306;BME280;59097;46.858;18.632;2023-04-16T08:26:05;100261.44;;;10.11;100.00
71306;BME280;59097;46.858;18.632;2023-04-16T08:28:33;100268.63;;;10.39;100.00
71306;BME280;59097;46.858;18.632;2023-04-16T08:31:02;100271.78;;;10.49;100.00
71306;BME280;59097;46.858;18.632;2023-04-16T08:33:29;100261.78;;;10.51;100.00
71306;BME280;59097;46.858;18.632;2023-04-16T08:35:58;100263.25;;;10.81;100.00
71306;BME280;59097;46.858;18.632;2023-04-16T08:38:26;100248.69;;;11.05;100.00
71306;BME280;59097;46.858;18.632;2023-04-16T08:41:11;100267.03;;;11.34;100.00
71306;BME280;59097;46.858;18.632;2023-04-16T08:44:07;100258.53;;;11.52;99.95
71306;BME280;59097;46.858;18.632;2023-04-16T08:46:36;100248.84;;;11.85;99.61
71306;BME280;59097;46.858;18.632;2023-04-16T08:49:07;100267.28;;;12.85;94.50
71306;BME280;59097;46.858;18.632;2023-04-16T08:51:34;100263.63;;;13.56;91.78
71306;BME280;59097;46.858;18.632;2023-04-16T08:54:11;100251.00;;;13.32;91.07
71306;BME280;59097;46.858;18.632;2023-04-16T08:56:46;100256.25;;;14.95;85.06
71306;BME280;59097;46.858;18.632;2023-04-16T08:59:16;100256.25;;;14.95;85.06
71306;BME280;59097;46.858;18.632;2023-04-16T09:01:44;100245.69;;;13.76;85.80
71306;BME280;59097;46.858;18.632;2023-04-16T09:04:16;100259.41;;;13.29;88.35
71306;BME280;59097;46.858;18.632;2023-04-16T09:06:47;100245.44;;;12.56;92.99
71306;BME280;59097;46.858;18.632;2023-04-16T09:09:17;100262.78;;;12.79;94.62
71306;BME280;59097;46.858;18.632;2023-04-16T09:11:50;100263.84;;;12.51;92.77
71306;BME280;59097;46.858;18.632;2023-04-16T09:14:19;100262.00;;;12.58;95.05
71306;BME280;59097;46.858;18.632;2023-04-16T09:17:03;100272.81;;;12.37;95.05
71306;BME280;59097;46.858;18.632;2023-04-16T09:20:02;100267.72;;;12.36;94.03
71306;BME280;59097;46.858;18.632;2023-04-16T09:22:31;100277.53;;;12.61;95.06
71306;BME280;59097;46.858;18.632;2023-04-16T09:24:57;100269.12;;;12.78;94.62
71306;BME280;59097;46.858;18.632;2023-04-16T09:27:24;100255.81;;;12.97;93.77
71306;BME280;59097;46.858;18.632;2023-04-16T09:29:50;100262.34;;;12.95;93.73
71306;BME280;59097;46.858;18.632;2023-04-16T09:32:27;100253.47;;;13.78;92.44
71306;BME280;59097;46.858;18.632;2023-04-16T09:35:00;100253.47;;;13.78;92.44
71306;BME280;59097;46.858;18.632;2023-04-16T09:37:29;100257.41;;;13.11;94.55
71306;BME280;59097;46.858;18.632;2023-04-16T09:39:59;100233.87;;;13.15;93.10
71306;BME280;59097;46.858;18.632;2023-04-16T09:42:31;100232.84;;;13.09;92.93
71306;BME280;59097;46.858;18.632;2023-04-16T09:45:00;100244.28;;;13.23;92.64
71306;BME280;59097;46.858;18.632;2023-04-16T09:47:43;100235.22;;;13.37;91.82
71306;BME280;59097;46.858;18.632;2023-04-16T09:50:17;100250.06;;;13.64;91.68
71306;BME280;59097;46.858;18.632;2023-04-16T09:53:00;100249.34;;;14.13;92.45
71306;BME280;59097;46.858;18.632;2023-04-16T09:55:44;100249.16;;;14.08;89.44
71306;BME280;59097;46.858;18.632;2023-04-16T09:58:10;100246.34;;;14.34;90.50
71306;BME280;59097;46.858;18.632;2023-04-16T10:00:36;100226.13;;;14.70;89.54
71306;BME280;59097;46.858;18.632;2023-04-16T10:03:05;100215.31;;;14.40;89.35
71306;BME280;59097;46.858;18.632;2023-04-16T10:05:32;100218.62;;;14.04;86.78
71306;BME280;59097;46.858;18.632;2023-04-16T10:08:11;100219.78;;;15.25;85.28
71306;BME280;59097;46.858;18.632;2023-04-16T10:10:40;100219.78;;;15.25;85.28
71306;BME280;59097;46.858;18.632;2023-04-16T10:13:09;100231.28;;;14.89;84.88
71306;BME280;59097;46.858;18.632;2023-04-16T10:15:37;100229.69;;;14.64;85.34
71306;BME280;59097;46.858;18.632;2023-04-16T10:18:06;100233.91;;;14.71;83.97
71306;BME280;59097;46.858;18.632;2023-04-16T10:20:34;100241.00;;;14.34;86.45
71306;BME280;59097;46.858;18.632;2023-04-16T10:23:03;100229.22;;;14.67;83.21
71306;BME280;59097;46.858;18.632;2023-04-16T10:25:32;100232.63;;;14.56;82.80
71306;BME280;59097;46.858;18.632;2023-04-16T10:28:01;100248.56;;;14.62;82.41
71306;BME280;59097;46.858;18.632;2023-04-16T10:31:00;100238.56;;;14.33;79.16
71306;BME280;59097;46.858;18.632;2023-04-16T10:33:57;100224.69;;;14.67;79.80
71306;BME280;59097;46.858;18.632;2023-04-16T10:36:39;100230.87;;;14.68;78.30
71306;BME280;59097;46.858;18.632;2023-04-16T10:39:09;100238.62;;;14.94;79.71
71306;BME280;59097;46.858;18.632;2023-04-16T10:41:37;100225.94;;;14.89;76.74
71306;BME280;59097;46.858;18.632;2023-04-16T10:44:08;100238.91;;;14.86;74.87
71306;BME280;59097;46.858;18.632;2023-04-16T10:46:45;100235.44;;;15.59;73.43
71306;BME280;59097;46.858;18.632;2023-04-16T10:49:18;100238.69;;;15.60;73.40
71306;BME280;59097;46.858;18.632;2023-04-16T10:52:00;100245.28;;;15.03;72.95
71306;BME280;59097;46.858;18.632;2023-04-16T10:54:35;100186.47;;;14.73;73.62
71306;BME280;59097;46.858;18.632;2023-04-16T10:57:05;100246.09;;;15.03;74.84
71306;BME280;59097;46.858;18.632;2023-04-16T10:59:36;100233.87;;;14.96;74.77
71306;BME280;59097;46.858;18.632;2023-04-16T11:02:11;100238.78;;;15.17;75.03
71306;BME280;59097;46.858;18.632;2023-04-16T11:04:43;100239.53;;;15.72;75.29
71306;BME280;59097;46.858;18.632;2023-04-16T11:07:33;100243.31;;;15.83;72.38
71306;BME280;59097;46.858;18.632;2023-04-16T11:10:38;100240.91;;;15.27;71.78
71306;BME280;59097;46.858;18.632;2023-04-16T11:13:05;100247.41;;;15.67;74.88
71306;BME280;59097;46.858;18.632;2023-04-16T11:15:32;100238.09;;;15.88;74.97
71306;BME280;59097;46.858;18.632;2023-04-16T11:17:59;100237.41;;;15.62;74.45
71306;BME280;59097;46.858;18.632;2023-04-16T11:20:27;100209.56;;;15.34;74.11
71306;BME280;59097;46.858;18.632;2023-04-16T11:22:55;100240.75;;;15.40;73.69
71306;BME280;59097;46.858;18.632;2023-04-16T11:25:29;100232.16;;;16.38;73.28
71306;BME280;59097;46.858;18.632;2023-04-16T11:27:58;100232.16;;;16.38;73.28
71306;BME280;59097;46.858;18.632;2023-04-16T11:30:31;100229.19;;;15.46;73.51
71306;BME280;59097;46.858;18.632;2023-04-16T11:33:04;100216.44;;;15.30;74.84
71306;BME280;59097;46.858;18.632;2023-04-16T11:35:34;100208.47;;;15.05;73.99
71306;BME280;59097;46.858;18.632;2023-04-16T11:38:02;100228.72;;;15.31;72.24
71306;BME280;59097;46.858;18.632;2023-04-16T11:40:32;100222.22;;;14.90;74.26
71306;BME280;59097;46.858;18.632;2023-04-16T11:43:03;100207.00;;;15.27;75.17
71306;BME280;59097;46.858;18.632;2023-04-16T11:45:59;100216.19;;;15.49;74.39
71306;BME280;59097;46.858;18.632;2023-04-16T11:48:50;100217.25;;;15.78;73.04
71306;BME280;59097;46.858;18.632;2023-04-16T11:51:31;100222.66;;;16.01;73.19
71306;BME280;59097;46.858;18.632;2023-04-16T11:53:58;100203.00;;;15.96;73.61
71306;BME280;59097;46.858;18.632;2023-04-16T11:56:28;100213.94;;;15.94;70.46
71306;BME280;59097;46.858;18.632;2023-04-16T11:59:09;100218.34;;;16.00;70.78
71306;BME280;59097;46.858;18.632;2023-04-16T12:01:37;100166.41;;;15.66;71.46
71306;BME280;59097;46.858;18.632;2023-04-16T12:04:15;100225.59;;;16.23;71.26
71306;BME280;59097;46.858;18.632;2023-04-16T12:07:04;100225.59;;;16.23;71.26
71306;BME280;59097;46.858;18.632;2023-04-16T12:09:34;100217.59;;;15.82;73.37
71306;BME280;59097;46.858;18.632;2023-04-16T12:12:26;100220.25;;;15.70;72.75
71306;BME280;59097;46.858;18.632;2023-04-16T12:14:56;100220.47;;;15.68;72.37
71306;BME280;59097;46.858;18.632;2023-04-16T12:17:26;100209.41;;;15.65;70.01
71306;BME280;59097;46.858;18.632;2023-04-16T12:19:59;100217.06;;;16.03;72.34
71306;BME280;59097;46.858;18.632;2023-04-16T12:22:35;100210.94;;;16.25;72.08
71306;BME280;59097;46.858;18.632;2023-04-16T12:25:18;100209.78;;;16.21;71.52
71306;BME280;59097;46.858;18.632;2023-04-16T12:27:48;100212.47;;;16.33;70.71
71306;BME280;59097;46.858;18.632;2023-04-16T12:30:20;100208.34;;;16.07;70.64
71306;BME280;59097;46.858;18.632;2023-04-16T12:32:49;100204.53;;;16.15;70.51
71306;BME280;59097;46.858;18.632;2023-04-16T12:35:30;100189.78;;;16.24;69.38
71306;BME280;59097;46.858;18.632;2023-04-16T12:37:56;100181.47;;;16.55;69.92
71306;BME280;59097;46.858;18.632;2023-04-16T12:40:28;100188.16;;;17.04;67.90
71306;BME280;59097;46.858;18.632;2023-04-16T12:42:57;100188.16;;;17.04;67.90
71306;BME280;59097;46.858;18.632;2023-04-16T12:45:25;100155.22;;;16.11;70.05
71306;BME280;59097;46.858;18.632;2023-04-16T12:47:53;100191.28;;;16.08;67.04
71306;BME280;59097;46.858;18.632;2023-04-16T12:50:23;100182.91;;;16.28;68.47
71306;BME280;59097;46.858;18.632;2023-04-16T12:52:51;100190.03;;;16.22;67.36
71306;BME280;59097;46.858;18.632;2023-04-16T12:55:18;100191.06;;;16.33;66.00
71306;BME280;59097;46.858;18.632;2023-04-16T12:57:47;100148.47;;;16.08;67.94
71306;BME280;59097;46.858;18.632;2023-04-16T13:00:38;100172.00;;;16.64;66.30
71306;BME280;59097;46.858;18.632;2023-04-16T13:03:08;100172.00;;;16.64;66.30
71306;BME280;59097;46.858;18.632;2023-04-16T13:05:36;100169.91;;;16.31;68.02
71306;BME280;59097;46.858;18.632;2023-04-16T13:08:04;100174.84;;;15.93;67.92
71306;BME280;59097;46.858;18.632;2023-04-16T13:10:34;100170.91;;;16.07;67.49
71306;BME280;59097;46.858;18.632;2023-04-16T13:13:02;100172.37;;;15.80;68.24
71306;BME280;59097;46.858;18.632;2023-04-16T13:15:30;100169.37;;;15.88;67.85
71306;BME280;59097;46.858;18.632;2023-04-16T13:17:58;100172.03;;;15.88;69.43